Time;durP1;ratioP1;P1;durP2;ratioP2;P2;SDS_P1;SDS_P2;PMS_P1;PMS_P2;Temp;Humidity;BMP_temperature;BMP_pressure;BME280_temperature;BME280_humidity;BME280_pressure;Samples;Min_cycle;Max_cycle;Signal;HPM_P1;HPM_P2
2023/09/14 00:02:22;;;;;;;15.70;8.30;;;;;;;19.76;100.00;98966.92;273061;1271;23003;-88
2023/09/14 00:08:29;;;;;;;14.20;8.10;;;;;;;19.71;100.00;98964.45;273100;1271;22325;-88
2023/09/14 00:14:32;;;;;;;12.20;7.20;;;;;;;19.64;100.00;98955.03;272937;1272;22348;-87
2023/09/14 00:20:34;;;;;;;9.00;7.30;;;;;;;19.56;100.00;98949.99;272725;1270;22660;-88
2023/09/14 00:26:35;;;;;;;12.90;7.80;;;;;;;19.54;100.00;98955.70;270197;1268;24237;-87
2023/09/14 00:32:39;;;;;;;13.10;7.40;;;;;;;19.52;100.00;98959.63;271482;1272;22389;-87
2023/09/14 00:38:41;;;;;;;11.70;6.60;;;;;;;19.47;100.00;98957.44;272853;1272;22368;-87
2023/09/14 00:44:44;;;;;;;16.30;8.20;;;;;;;19.43;100.00;98961.13;272882;1271;22334;-88
2023/09/14 00:50:47;;;;;;;16.60;9.10;;;;;;;19.37;100.00;98958.80;272901;1271;22335;-88
2023/09/14 00:56:50;;;;;;;13.40;8.60;;;;;;;19.34;100.00;98960.79;272921;1270;22307;-88
2023/09/14 01:02:58;;;;;;;13.10;8.20;;;;;;;19.31;100.00;98959.04;273081;1271;22287;-88
2023/09/14 01:09:01;;;;;;;10.10;7.60;;;;;;;19.29;100.00;98965.59;272859;1270;22323;-88
2023/09/14 01:15:19;;;;;;;16.50;8.50;;;;;;;19.28;100.00;98968.63;272922;1271;22371;-88
2023/09/14 01:21:41;;;;;;;16.30;9.50;;;;;;;19.21;100.00;98965.83;272754;1272;22338;-88
2023/09/14 01:27:44;;;;;;;19.90;11.60;;;;;;;19.17;100.00;98961.73;272522;1270;22604;-87
2023/09/14 01:33:48;;;;;;;25.70;13.60;;;;;;;19.11;100.00;98957.91;271512;1272;22655;-89
2023/09/14 01:39:53;;;;;;;15.00;10.60;;;;;;;19.01;100.00;98957.83;270397;1269;22557;-89
2023/09/14 01:46:35;;;;;;;12.30;9.60;;;;;;;19.00;100.00;98961.50;272838;1256;22238;-89
2023/09/14 01:52:58;;;;;;;11.10;9.90;;;;;;;18.98;100.00;98965.49;270718;1272;23137;-88
2023/09/14 01:58:59;;;;;;;13.80;9.80;;;;;;;18.96;100.00;98969.20;272110;1272;22530;-88
2023/09/14 02:05:01;;;;;;;13.40;10.50;;;;;;;18.93;100.00;98971.56;272996;1270;22359;-87
2023/09/14 02:11:03;;;;;;;12.10;10.80;;;;;;;18.94;100.00;98977.02;272119;1273;23668;-88
2023/09/14 02:17:46;;;;;;;14.40;10.40;;;;;;;18.97;100.00;98975.21;273964;1272;22238;-88
2023/09/14 02:24:47;;;;;;;14.50;11.30;;;;;;;18.99;100.00;98975.32;273702;1273;22237;-87
2023/09/14 02:31:31;;;;;;;14.20;11.30;;;;;;;19.00;100.00;98974.19;273308;1275;22209;-87
2023/09/14 02:38:36;;;;;;;13.50;11.10;;;;;;;18.95;100.00;98970.73;273179;1278;22178;-88
2023/09/14 02:45:39;;;;;;;12.70;8.00;;;;;;;18.92;100.00;98967.61;273146;1275;22202;-87
2023/09/14 02:51:41;;;;;;;11.40;7.20;;;;;;;18.76;100.00;98968.78;273284;1275;22208;-87
2023/09/14 02:57:46;;;;;;;11.00;7.30;;;;;;;18.72;100.00;98977.75;271164;1275;22598;-86
2023/09/14 03:03:48;;;;;;;11.80;7.40;;;;;;;18.70;100.00;98992.58;271465;1272;22552;-86
2023/09/14 03:09:50;;;;;;;10.40;7.50;;;;;;;18.70;100.00;99000.75;270086;1270;22539;-87
2023/09/14 03:16:44;;;;;;;10.50;8.40;;;;;;;18.71;100.00;99004.14;272828;1273;22978;-87
2023/09/14 03:31:43;;;;;;;13.80;9.40;;;;;;;18.68;100.00;99017.36;273392;1278;22223;-87
2023/09/14 03:37:47;;;;;;;15.60;9.90;;;;;;;18.64;100.00;99016.19;273230;1272;22914;-87
2023/09/14 03:44:37;;;;;;;14.70;10.90;;;;;;;18.58;100.00;99024.29;272325;1263;22338;-86
2023/09/14 03:50:58;;;;;;;16.20;12.00;;;;;;;18.55;100.00;99029.75;271998;1270;22319;-85
2023/09/14 03:57:14;;;;;;;19.90;12.80;;;;;;;18.52;100.00;99034.40;272490;1270;22343;-87
2023/09/14 04:03:19;;;;;;;12.90;8.50;;;;;;;18.48;100.00;99040.98;272173;1272;24288;-84
2023/09/14 04:09:21;;;;;;;11.90;8.60;;;;;;;18.43;100.00;99042.89;269697;1272;24231;-85
2023/09/14 04:15:23;;;;;;;11.90;7.80;;;;;;;18.40;100.00;99049.62;269328;1263;23453;-85
2023/09/14 04:21:25;;;;;;;9.70;6.80;;;;;;;18.34;100.00;99048.73;271438;1272;22237;-86
2023/09/14 04:27:26;;;;;;;8.30;6.70;;;;;;;18.29;100.00;99048.61;273056;1273;22191;-84
2023/09/14 04:33:32;;;;;;;8.70;6.40;;;;;;;18.27;100.00;99056.32;273085;1272;22241;-86
2023/09/14 04:39:34;;;;;;;9.30;8.20;;;;;;;18.17;100.00;99051.85;272835;1273;22188;-86
2023/09/14 04:45:36;;;;;;;14.30;8.20;;;;;;;18.12;100.00;99054.95;272616;1272;22405;-86
2023/09/14 04:51:39;;;;;;;10.60;8.10;;;;;;;18.11;100.00;99054.58;272637;1271;22309;-85
2023/09/14 04:57:41;;;;;;;12.20;8.70;;;;;;;18.14;100.00;99055.14;272786;1270;22391;-84
2023/09/14 05:03:43;;;;;;;11.20;8.60;;;;;;;18.15;100.00;99060.73;273097;1270;22325;-85
2023/09/14 05:09:45;;;;;;;12.10;8.80;;;;;;;18.16;100.00;99063.73;273011;1270;22197;-86
2023/09/14 05:15:47;;;;;;;12.70;8.50;;;;;;;18.16;100.00;99067.92;272959;1270;22282;-85
2023/09/14 05:21:50;;;;;;;11.90;8.20;;;;;;;18.15;100.00;99073.56;273106;1270;23829;-85
2023/09/14 05:27:53;;;;;;;11.50;8.80;;;;;;;18.12;100.00;99075.13;273092;1270;22329;-85
2023/09/14 05:33:55;;;;;;;14.70;9.80;;;;;;;18.09;100.00;99077.86;273105;1270;22360;-85
2023/09/14 05:39:58;;;;;;;18.40;12.50;;;;;;;18.08;100.00;99081.14;273155;1270;23277;-85
2023/09/14 05:46:01;;;;;;;14.60;10.90;;;;;;;18.07;100.00;99084.80;272607;1270;22321;-85
2023/09/14 05:52:05;;;;;;;14.30;10.60;;;;;;;18.07;100.00;99089.39;273160;1270;23659;-85
2023/09/14 05:58:41;;;;;;;14.30;11.10;;;;;;;18.08;100.00;99091.98;272867;1270;22413;-86
2023/09/14 06:04:49;;;;;;;14.70;9.70;;;;;;;18.07;100.00;99093.98;272978;1271;22310;-85
2023/09/14 06:10:50;;;;;;;14.60;9.30;;;;;;;18.04;100.00;99099.32;273229;1270;23450;-84
2023/09/14 06:16:53;;;;;;;12.20;8.70;;;;;;;18.03;100.00;99099.33;273037;1270;22206;-84
2023/09/14 06:22:55;;;;;;;10.70;7.10;;;;;;;18.02;100.00;99104.80;273139;1270;22220;-85
2023/09/14 06:28:57;;;;;;;8.40;6.70;;;;;;;18.00;100.00;99105.72;273021;1270;22301;-84
2023/09/14 06:35:17;;;;;;;14.60;8.00;;;;;;;18.05;100.00;99109.99;272590;1270;22556;-87
2023/09/14 06:41:19;;;;;;;10.90;7.90;;;;;;;18.09;100.00;99111.91;269980;1270;22554;-83
2023/09/14 06:47:21;;;;;;;11.70;9.20;;;;;;;18.11;100.00;99114.25;271902;1274;23098;-83
2023/09/14 06:53:48;;;;;;;15.30;9.80;;;;;;;18.11;100.00;99118.02;273199;1275;22164;-83
2023/09/14 07:00:07;;;;;;;14.90;11.90;;;;;;;18.10;100.00;99117.88;271400;1264;22375;-83
2023/09/14 07:06:10;;;;;;;17.40;12.60;;;;;;;18.11;100.00;99129.04;272889;1271;22379;-85
2023/09/14 07:12:12;;;;;;;20.70;11.20;;;;;;;18.13;100.00;99138.66;273238;1270;22204;-85
2023/09/14 07:18:28;;;;;;;14.60;9.10;;;;;;;18.14;100.00;99150.84;273304;1266;22213;-85
2023/09/14 07:24:32;;;;;;;13.40;8.80;;;;;;;18.12;100.00;99159.19;273376;1270;22317;-85
2023/09/14 07:30:37;;;;;;;11.30;8.20;;;;;;;18.05;100.00;99166.90;273288;1270;23194;-84
2023/09/14 07:36:42;;;;;;;8.80;7.30;;;;;;;17.89;100.00;99175.55;272921;1270;23237;-85
2023/09/14 07:42:44;;;;;;;9.60;8.10;;;;;;;17.75;100.00;99183.11;271571;1270;22550;-85
2023/09/14 07:48:47;;;;;;;10.80;8.50;;;;;;;17.66;100.00;99189.26;273192;1270;22221;-85
2023/09/14 07:55:09;;;;;;;13.70;10.40;;;;;;;17.55;100.00;99197.09;273621;1270;22361;-85
2023/09/14 08:01:12;;;;;;;12.90;10.30;;;;;;;17.45;100.00;99203.54;273559;1270;22216;-85
2023/09/14 08:07:15;;;;;;;12.60;9.50;;;;;;;17.45;100.00;99211.98;273439;1270;22351;-85
2023/09/14 08:13:22;;;;;;;13.10;10.00;;;;;;;17.48;100.00;99214.57;273734;1274;22210;-86
2023/09/14 08:19:23;;;;;;;11.80;9.80;;;;;;;17.54;100.00;99216.88;273258;1271;22464;-85
2023/09/14 08:25:25;;;;;;;10.30;6.90;;;;;;;17.56;100.00;99221.42;273361;1270;22329;-85
2023/09/14 08:31:27;;;;;;;5.70;4.70;;;;;;;17.56;100.00;99226.40;273615;1275;22194;-86
2023/09/14 08:37:49;;;;;;;5.60;3.70;;;;;;;17.61;100.00;99227.14;272609;1270;25352;-85
2023/09/14 08:43:51;;;;;;;5.20;4.50;;;;;;;17.68;100.00;99235.81;270180;1269;22546;-85
2023/09/14 08:49:57;;;;;;;6.40;3.20;;;;;;;17.76;100.00;99241.25;270277;1270;22689;-84
2023/09/14 08:56:19;;;;;;;3.20;2.90;;;;;;;17.79;100.00;99245.64;272016;1270;22907;-85
2023/09/14 09:02:22;;;;;;;6.10;3.20;;;;;;;17.86;100.00;99251.64;273124;1272;22313;-85
2023/09/14 09:08:32;;;;;;;5.00;2.80;;;;;;;17.89;100.00;99253.57;272773;1270;22224;-85
2023/09/14 09:14:55;;;;;;;3.80;2.60;;;;;;;17.90;100.00;99253.86;273014;1270;22786;-85
2023/09/14 09:21:05;;;;;;;5.40;2.60;;;;;;;17.95;100.00;99255.29;273030;1269;22334;-84
2023/09/14 09:27:26;;;;;;;4.80;2.60;;;;;;;18.05;100.00;99254.98;273195;1270;22355;-85
2023/09/14 09:33:40;;;;;;;3.20;2.40;;;;;;;18.15;100.00;99256.27;272500;1265;22581;-86
2023/09/14 09:39:59;;;;;;;3.70;2.70;;;;;;;18.19;100.00;99259.59;272828;1263;22377;-85
2023/09/14 09:46:28;;;;;;;5.00;2.70;;;;;;;18.14;100.00;99274.09;271798;1270;22975;-85
2023/09/14 09:52:34;;;;;;;8.50;2.70;;;;;;;18.08;100.00;99277.58;269794;1270;24343;-85
2023/09/14 09:58:37;;;;;;;3.60;2.30;;;;;;;18.08;100.00;99275.98;271532;1270;22360;-85
2023/09/14 10:05:21;;;;;;;5.70;2.20;;;;;;;18.10;100.00;99275.23;270064;1270;22516;-85
2023/09/14 10:11:28;;;;;;;3.20;2.50;;;;;;;18.15;100.00;99274.23;270370;1270;22535;-85
2023/09/14 10:17:34;;;;;;;5.00;2.30;;;;;;;18.17;100.00;99275.40;270517;1270;23711;-85
2023/09/14 10:23:43;;;;;;;6.70;2.60;;;;;;;18.17;100.00;99280.37;269493;1270;22566;-85
2023/09/14 10:29:55;;;;;;;2.80;2.20;;;;;;;18.23;100.00;99283.06;271063;1270;22321;-85
2023/09/14 10:36:17;;;;;;;3.60;2.60;;;;;;;18.26;100.00;99284.36;272792;1270;22231;-85
2023/09/14 10:42:18;;;;;;;4.00;2.40;;;;;;;18.28;100.00;99286.30;270896;1270;22551;-86
2023/09/14 10:48:29;;;;;;;5.10;3.10;;;;;;;18.34;100.00;99282.33;271926;1270;22311;-86
2023/09/14 10:54:47;;;;;;;4.60;3.20;;;;;;;18.41;100.00;99280.27;273015;1263;23138;-86
2023/09/14 11:01:10;;;;;;;4.40;3.30;;;;;;;18.44;100.00;99282.45;273153;1270;22384;-85
2023/09/14 11:07:49;;;;;;;4.90;3.10;;;;;;;18.47;100.00;99285.00;273267;1264;22327;-86
2023/09/14 11:14:13;;;;;;;3.90;3.40;;;;;;;18.52;100.00;99289.44;273026;1270;22403;-85
2023/09/14 11:20:24;;;;;;;4.20;3.50;;;;;;;18.54;100.00;99290.27;273077;1259;128521;-86
2023/09/14 11:26:51;;;;;;;6.10;5.50;;;;;;;18.58;100.00;99285.86;273004;1270;22220;-86
2023/09/14 11:32:53;;;;;;;9.50;7.40;;;;;;;18.63;100.00;99289.48;273072;1270;22315;-85
2023/09/14 11:38:55;;;;;;;11.10;8.30;;;;;;;18.67;100.00;99296.02;273001;1270;23032;-85
2023/09/14 11:44:59;;;;;;;11.20;9.20;;;;;;;18.69;100.00;99298.52;272958;1270;22337;-85
2023/09/14 11:51:03;;;;;;;11.40;9.50;;;;;;;18.74;100.00;99299.85;273056;1268;23496;-85
2023/09/14 11:57:07;;;;;;;13.60;9.40;;;;;;;18.80;100.00;99305.07;272958;1270;23640;-86
2023/09/14 12:03:09;;;;;;;14.60;9.50;;;;;;;18.79;100.00;99306.91;272992;1270;23603;-85
2023/09/14 12:09:12;;;;;;;11.50;9.50;;;;;;;18.81;100.00;99305.20;272913;1271;22836;-86
2023/09/14 12:15:20;;;;;;;12.60;9.40;;;;;;;18.88;100.00;99309.36;273140;1270;23330;-86
2023/09/14 12:21:24;;;;;;;11.50;8.90;;;;;;;18.94;100.00;99305.84;272829;1270;22409;-85
2023/09/14 12:27:27;;;;;;;11.00;8.60;;;;;;;18.95;100.00;99307.41;272927;1272;22195;-86
2023/09/14 12:33:29;;;;;;;9.90;8.30;;;;;;;18.90;100.00;99305.76;271652;1270;22636;-86
2023/09/14 12:39:32;;;;;;;11.90;8.50;;;;;;;18.87;100.00;99309.52;270432;1271;22375;-85
2023/09/14 12:45:34;;;;;;;10.50;8.50;;;;;;;18.83;100.00;99312.06;270627;1270;22618;-86
2023/09/14 12:51:36;;;;;;;11.20;8.40;;;;;;;18.70;100.00;99315.05;270527;1269;22943;-85
2023/09/14 12:57:38;;;;;;;12.50;9.20;;;;;;;18.69;100.00;99310.55;271792;1270;23235;-85
2023/09/14 13:03:40;;;;;;;13.20;9.60;;;;;;;18.65;100.00;99301.98;270177;1262;23204;-85
2023/09/14 13:09:43;;;;;;;12.50;10.40;;;;;;;18.57;100.00;99311.30;270674;1270;22920;-86
2023/09/14 13:15:45;;;;;;;12.00;9.70;;;;;;;18.51;100.00;99323.12;270719;1270;22441;-86
2023/09/14 13:21:47;;;;;;;12.30;9.30;;;;;;;18.46;100.00;99326.92;270942;1270;22501;-86
2023/09/14 13:27:49;;;;;;;11.30;9.20;;;;;;;18.51;100.00;99329.92;272044;1269;22516;-85
2023/09/14 13:33:51;;;;;;;11.70;8.90;;;;;;;18.60;100.00;99328.03;271743;1270;22898;-86
2023/09/14 13:46:20;;;;;;;11.40;9.20;;;;;;;18.72;100.00;99312.95;273033;1263;23180;-86
2023/09/14 13:52:45;;;;;;;12.20;9.80;;;;;;;18.73;100.00;99310.39;273053;1256;22197;-86
2023/09/14 13:58:48;;;;;;;13.90;9.20;;;;;;;18.77;100.00;99305.67;272608;1270;22383;-85
2023/09/14 14:04:51;;;;;;;12.60;9.30;;;;;;;18.86;100.00;99307.65;271379;1272;22341;-85
2023/09/14 14:10:52;;;;;;;11.60;8.90;;;;;;;18.96;100.00;99308.96;270965;1271;22530;-87
2023/09/14 14:17:35;;;;;;;13.80;9.20;;;;;;;18.99;100.00;99312.89;271401;1269;22426;-86
2023/09/14 14:23:41;;;;;;;11.10;8.90;;;;;;;19.05;100.00;99313.82;272807;1268;22182;-86
2023/09/14 14:30:03;;;;;;;10.40;9.00;;;;;;;19.12;100.00;99317.02;272866;1271;22715;-86
2023/09/14 14:36:04;;;;;;;10.00;8.50;;;;;;;19.17;100.00;99320.95;272790;1272;22530;-87
2023/09/14 14:42:06;;;;;;;12.60;8.80;;;;;;;19.17;100.00;99315.10;272137;1271;23372;-86
2023/09/14 14:48:33;;;;;;;11.20;8.90;;;;;;;19.22;100.00;99317.77;272820;1272;22197;-87
2023/09/14 14:54:35;;;;;;;11.70;9.30;;;;;;;19.26;100.00;99321.75;272736;1265;22403;-86
2023/09/14 15:00:57;;;;;;;11.70;9.80;;;;;;;19.23;100.00;99327.29;272798;1263;22553;-86
2023/09/14 15:06:59;;;;;;;16.10;9.80;;;;;;;19.20;100.00;99333.04;270533;1264;22446;-87
2023/09/14 15:13:21;;;;;;;13.60;9.30;;;;;;;19.15;100.00;99338.98;271920;1270;22235;-86
2023/09/14 15:20:03;;;;;;;15.20;9.40;;;;;;;19.09;100.00;99341.73;270599;1270;25372;-86
2023/09/14 15:26:05;;;;;;;14.80;8.90;;;;;;;19.05;100.00;99343.85;271779;1270;22349;-86
2023/09/14 15:32:47;;;;;;;12.80;7.10;;;;;;;18.93;100.00;99348.49;273100;1262;22179;-85
2023/09/14 15:39:11;;;;;;;7.00;5.50;;;;;;;18.83;100.00;99356.59;270817;1271;22539;-85
2023/09/14 15:45:12;;;;;;;5.60;5.00;;;;;;;18.77;100.00;99355.97;272882;1271;22232;-86
2023/09/14 15:51:34;;;;;;;5.40;4.20;;;;;;;18.71;100.00;99359.55;273001;1270;22196;-86
2023/09/14 15:57:36;;;;;;;3.90;3.50;;;;;;;18.66;100.00;99365.73;272969;1271;22278;-86
2023/09/14 16:03:38;;;;;;;4.40;2.90;;;;;;;18.62;100.00;99374.02;272331;1271;22505;-86
2023/09/14 16:09:40;;;;;;;6.40;3.00;;;;;;;18.58;100.00;99380.11;272034;1270;22556;-85
2023/09/14 16:16:02;;;;;;;3.30;2.90;;;;;;;18.55;100.00;99385.15;271905;1269;22700;-87
2023/09/14 16:22:04;;;;;;;4.50;3.00;;;;;;;18.56;100.00;99389.02;272583;1270;22542;-87
2023/09/14 16:28:07;;;;;;;3.40;2.80;;;;;;;18.59;100.00;99395.79;271849;1271;22389;-86
2023/09/14 16:34:33;;;;;;;3.00;2.70;;;;;;;18.58;100.00;99401.42;263482;1270;10002383;-86
2023/09/14 16:40:35;;;;;;;6.80;3.10;;;;;;;18.57;100.00;99408.33;271759;1272;22969;-87
2023/09/14 16:46:57;;;;;;;5.10;3.10;;;;;;;18.54;100.00;99411.40;272992;1271;22413;-86
2023/09/14 16:52:59;;;;;;;6.70;3.40;;;;;;;18.48;100.00;99410.52;273029;1270;22339;-86
2023/09/14 16:59:44;;;;;;;6.00;3.30;;;;;;;18.40;100.00;99413.39;273081;1268;22209;-87
2023/09/14 17:06:26;;;;;;;10.30;3.50;;;;;;;18.32;100.00;99416.02;273128;1270;22183;-86
2023/09/14 17:12:48;;;;;;;14.30;4.50;;;;;;;18.28;100.00;99423.99;273086;1272;22458;-87
2023/09/14 17:18:51;;;;;;;18.20;5.10;;;;;;;18.19;100.00;99430.04;273004;1270;22447;-87
2023/09/14 17:24:52;;;;;;;13.80;4.00;;;;;;;18.04;100.00;99436.73;272959;1272;23995;-87
2023/09/14 17:31:15;;;;;;;11.50;3.70;;;;;;;17.95;100.00;99443.87;273276;1272;22202;-87
2023/09/14 17:37:17;;;;;;;6.10;2.90;;;;;;;17.84;100.00;99447.55;272948;1272;22721;-85
2023/09/14 17:43:20;;;;;;;12.40;3.50;;;;;;;17.69;100.00;99455.79;272696;1271;22211;-86
2023/09/14 17:49:24;;;;;;;6.40;2.60;;;;;;;17.66;100.00;99458.67;272835;1270;23495;-86
2023/09/14 17:55:28;;;;;;;5.30;2.70;;;;;;;17.58;100.00;99460.56;272830;1272;22328;-87
2023/09/14 18:01:30;;;;;;;4.20;2.40;;;;;;;17.53;100.00;99460.69;272749;1272;23285;-87
2023/09/14 18:07:33;;;;;;;5.20;2.70;;;;;;;17.56;100.00;99465.49;272994;1270;22333;-88
2023/09/14 18:13:34;;;;;;;4.80;2.60;;;;;;;17.54;100.00;99472.14;272831;1272;22372;-87
2023/09/14 18:19:37;;;;;;;11.40;3.40;;;;;;;17.48;100.00;99478.92;272867;1268;23071;-87
2023/09/14 18:25:39;;;;;;;7.80;4.30;;;;;;;17.45;100.00;99484.94;272801;1272;22190;-87
2023/09/14 18:31:41;;;;;;;7.20;4.60;;;;;;;17.46;100.00;99488.42;272826;1270;22896;-86
2023/09/14 18:37:43;;;;;;;8.30;4.70;;;;;;;17.50;100.00;99492.67;272625;1272;23282;-86
2023/09/14 18:43:46;;;;;;;9.50;4.70;;;;;;;17.51;100.00;99495.35;272737;1272;22388;-87
2023/09/14 18:49:48;;;;;;;11.70;6.30;;;;;;;17.50;100.00;99497.50;272849;1272;22331;-86
2023/09/14 18:55:49;;;;;;;9.30;5.00;;;;;;;17.50;100.00;99496.48;272843;1263;22316;-86
2023/09/14 19:01:51;;;;;;;11.20;4.70;;;;;;;17.51;100.00;99499.94;272720;1272;22330;-86
2023/09/14 19:07:54;;;;;;;15.20;5.20;;;;;;;17.47;100.00;99507.31;272933;1272;22796;-87
2023/09/14 19:13:56;;;;;;;9.50;4.80;;;;;;;17.38;100.00;99510.77;273045;1270;22424;-86
2023/09/14 19:19:58;;;;;;;10.20;4.60;;;;;;;17.38;100.00;99515.91;272757;1272;22352;-86
2023/09/14 19:26:00;;;;;;;12.70;4.50;;;;;;;17.34;100.00;99518.93;272790;1271;22341;-87
2023/09/14 19:32:03;;;;;;;10.30;4.20;;;;;;;17.33;100.00;99513.73;272957;1271;22313;-88
2023/09/14 19:38:04;;;;;;;9.00;4.30;;;;;;;17.26;100.00;99519.40;272820;1272;22966;-87
2023/09/14 19:44:06;;;;;;;8.60;3.60;;;;;;;17.22;100.00;99527.02;272888;1270;22494;-85
2023/09/14 19:50:08;;;;;;;8.10;4.00;;;;;;;17.21;100.00;99526.39;272921;1270;22515;-86
2023/09/14 19:56:10;;;;;;;8.10;3.90;;;;;;;17.23;100.00;99523.38;272841;1269;23991;-87
2023/09/14 20:02:14;;;;;;;5.90;3.90;;;;;;;17.24;100.00;99526.54;272930;1270;22424;-87
2023/09/14 20:08:16;;;;;;;5.70;3.60;;;;;;;17.12;100.00;99525.11;272769;1270;22339;-87
2023/09/14 20:14:21;;;;;;;6.50;3.60;;;;;;;17.10;100.00;99529.08;272817;1270;22201;-87
2023/09/14 20:20:24;;;;;;;7.10;4.20;;;;;;;17.11;100.00;99535.16;272743;1270;22361;-86
2023/09/14 20:26:26;;;;;;;11.00;4.90;;;;;;;17.08;100.00;99534.55;272740;1270;22412;-86
2023/09/14 20:32:31;;;;;;;11.60;4.60;;;;;;;17.00;100.00;99531.51;272634;1270;22414;-87
2023/09/14 20:38:41;;;;;;;7.50;4.10;;;;;;;16.97;100.00;99532.64;271995;1270;23052;-87
2023/09/14 20:44:45;;;;;;;8.80;4.60;;;;;;;16.98;100.00;99541.64;272482;1270;22603;-87
2023/09/14 20:50:48;;;;;;;10.80;4.80;;;;;;;16.90;100.00;99548.39;271235;1270;23330;-87
2023/09/14 20:56:50;;;;;;;11.20;4.50;;;;;;;16.87;100.00;99548.34;272397;1270;22232;-87
2023/09/14 21:02:53;;;;;;;8.20;4.60;;;;;;;16.91;100.00;99555.11;272890;1270;22166;-88
2023/09/14 21:09:00;;;;;;;8.90;4.40;;;;;;;16.92;100.00;99557.40;272970;1272;22378;-88
2023/09/14 21:15:02;;;;;;;10.40;4.50;;;;;;;16.90;100.00;99561.04;272865;1272;23182;-87
2023/09/14 21:21:04;;;;;;;8.40;4.90;;;;;;;16.89;100.00;99561.44;272926;1270;22403;-87
2023/09/14 21:27:06;;;;;;;8.60;4.50;;;;;;;16.81;100.00;99565.11;272969;1270;22404;-86
2023/09/14 21:33:48;;;;;;;7.60;3.90;;;;;;;16.80;100.00;99568.02;273009;1269;22437;-87
2023/09/14 21:40:32;;;;;;;14.70;4.70;;;;;;;16.74;100.00;99560.33;273046;1270;22344;-87
2023/09/14 21:46:34;;;;;;;7.70;4.70;;;;;;;16.68;100.00;99558.15;272932;1270;22409;-87
2023/09/14 21:52:35;;;;;;;13.30;4.80;;;;;;;16.66;100.00;99561.63;273132;1270;22313;-87
2023/09/14 21:58:37;;;;;;;11.10;4.80;;;;;;;16.64;100.00;99556.50;273142;1270;22321;-87
2023/09/14 22:04:39;;;;;;;13.80;4.70;;;;;;;16.60;100.00;99555.27;273223;1264;22319;-87
2023/09/14 22:10:44;;;;;;;9.20;5.10;;;;;;;16.58;100.00;99553.77;273174;1270;23877;-87
2023/09/14 22:16:46;;;;;;;10.20;6.40;;;;;;;16.52;100.00;99556.95;273155;1270;23089;-87
2023/09/14 22:22:51;;;;;;;12.60;6.60;;;;;;;16.53;100.00;99562.16;273423;1273;22232;-87
2023/09/14 22:29:09;;;;;;;12.00;5.70;;;;;;;16.53;100.00;99562.79;273232;1270;22212;-87
2023/09/14 22:35:11;;;;;;;12.20;6.80;;;;;;;16.50;100.00;99562.17;273205;1262;22223;-86
2023/09/14 22:41:33;;;;;;;16.00;6.70;;;;;;;16.44;100.00;99566.03;273320;1270;22341;-87
2023/09/14 22:48:16;;;;;;;11.60;7.00;;;;;;;16.36;100.00;99568.34;273149;1270;22336;-87
2023/09/14 22:54:58;;;;;;;11.00;6.30;;;;;;;16.35;100.00;99572.77;273417;1278;22185;-87
2023/09/14 23:01:00;;;;;;;11.30;6.70;;;;;;;16.35;100.00;99573.16;273195;1270;22217;-87
2023/09/14 23:07:03;;;;;;;14.00;6.80;;;;;;;16.36;100.00;99568.98;273126;1270;23171;-87
2023/09/14 23:13:04;;;;;;;12.70;7.50;;;;;;;16.39;100.00;99569.76;273188;1270;22468;-87
2023/09/14 23:19:09;;;;;;;12.20;7.20;;;;;;;16.38;100.00;99569.28;273077;1270;151887;-87
2023/09/14 23:25:14;;;;;;;12.40;7.20;;;;;;;16.36;100.00;99569.54;273304;1270;22213;-87
2023/09/14 23:31:16;;;;;;;11.00;6.50;;;;;;;16.32;100.00;99568.44;273206;1270;22305;-87
2023/09/14 23:37:18;;;;;;;12.60;6.90;;;;;;;16.30;100.00;99564.10;273129;1270;22223;-87
2023/09/14 23:43:31;;;;;;;12.00;7.90;;;;;;;16.25;100.00;99559.46;273230;1270;22183;-87
2023/09/14 23:49:34;;;;;;;14.50;8.20;;;;;;;16.27;100.00;99554.64;272959;1270;22302;-86
2023/09/14 23:55:36;;;;;;;14.60;8.10;;;;;;;16.27;100.00;99556.21;272800;1270;22731;-87
